Terminal Aerodrome Forecast
Issued by NWS

Home | Current Version | Previous Version | Text Only | Print | Product List | Glossary On
Versions: 1 2 3 4 5 6 7 8 9 10 11 12 13 14 15 16 17 18 19 20 21
000
FTUS44 KLZK 051100
TAFHRO
TAF
KHRO 051134Z 0512/0612 14005KT 4SM BR BKN005 OVC050
      TEMPO 0512/0514 1/4SM FG BKN001
     FM051600 18006KT P6SM SCT040 BKN100
     FM051800 18009KT P6SM VCSH SCT040 SCT100=

USA.gov is the U.S. government's official web portal to all federal, state and local government web resources and services.